sensor_id;sensor_type;location;lat;lon;timestamp;temperature;humidity
71128;SHT30;59249;59.736;30.568;2022-09-16T00:02:24;13.76;89.89
71128;SHT30;59249;59.736;30.568;2022-09-16T00:04:53;13.78;90.00
71128;SHT30;59249;59.736;30.568;2022-09-16T00:07:22;13.85;89.93
71128;SHT30;59249;59.736;30.568;2022-09-16T00:09:51;13.77;90.13
71128;SHT30;59249;59.736;30.568;2022-09-16T00:12:46;13.81;89.96
71128;SHT30;59249;59.736;30.568;2022-09-16T00:15:15;13.81;90.02
71128;SHT30;59249;59.736;30.568;2022-09-16T00:17:44;13.77;90.19
71128;SHT30;59249;59.736;30.568;2022-09-16T00:20:13;13.74;90.23
71128;SHT30;59249;59.736;30.568;2022-09-16T00:22:41;13.77;90.14
71128;SHT30;59249;59.736;30.568;2022-09-16T00:25:10;13.83;90.21
71128;SHT30;59249;59.736;30.568;2022-09-16T00:27:39;13.80;90.31
71128;SHT30;59249;59.736;30.568;2022-09-16T00:30:10;13.74;90.40
71128;SHT30;59249;59.736;30.568;2022-09-16T00:32:39;13.78;90.23
71128;SHT30;59249;59.736;30.568;2022-09-16T00:35:08;13.72;90.23
71128;SHT30;59249;59.736;30.568;2022-09-16T00:37:37;13.74;90.42
71128;SHT30;59249;59.736;30.568;2022-09-16T00:40:06;13.71;90.49
71128;SHT30;59249;59.736;30.568;2022-09-16T00:42:39;13.65;90.63
71128;SHT30;59249;59.736;30.568;2022-09-16T00:45:17;13.67;90.40
71128;SHT30;59249;59.736;30.568;2022-09-16T00:47:51;13.66;90.47
71128;SHT30;59249;59.736;30.568;2022-09-16T00:50:27;13.59;90.84
71128;SHT30;59249;59.736;30.568;2022-09-16T00:52:59;13.58;90.89
71128;SHT30;59249;59.736;30.568;2022-09-16T00:55:33;13.57;90.90
71128;SHT30;59249;59.736;30.568;2022-09-16T00:58:11;13.55;90.83
71128;SHT30;59249;59.736;30.568;2022-09-16T01:00:46;13.52;90.84
71128;SHT30;59249;59.736;30.568;2022-09-16T01:03:15;13.45;91.06
71128;SHT30;59249;59.736;30.568;2022-09-16T01:05:46;13.40;91.14
71128;SHT30;59249;59.736;30.568;2022-09-16T01:08:15;13.42;91.10
71128;SHT30;59249;59.736;30.568;2022-09-16T01:10:46;13.40;91.01
71128;SHT30;59249;59.736;30.568;2022-09-16T01:13:18;13.41;91.03
71128;SHT30;59249;59.736;30.568;2022-09-16T01:15:59;13.41;91.21
71128;SHT30;59249;59.736;30.568;2022-09-16T01:18:36;13.46;91.26
71128;SHT30;59249;59.736;30.568;2022-09-16T01:21:25;13.39;91.34
71128;SHT30;59249;59.736;30.568;2022-09-16T01:24:34;13.43;91.09
71128;SHT30;59249;59.736;30.568;2022-09-16T01:27:46;13.45;91.20
71128;SHT30;59249;59.736;30.568;2022-09-16T01:30:42;13.37;91.31
71128;SHT30;59249;59.736;30.568;2022-09-16T01:33:25;13.45;91.09
71128;SHT30;59249;59.736;30.568;2022-09-16T01:39:22;13.49;90.89
71128;SHT30;59249;59.736;30.568;2022-09-16T01:42:15;13.43;91.13
71128;SHT30;59249;59.736;30.568;2022-09-16T01:44:57;13.46;91.04
71128;SHT30;59249;59.736;30.568;2022-09-16T01:47:37;13.43;91.12
71128;SHT30;59249;59.736;30.568;2022-09-16T01:50:19;13.47;91.01
71128;SHT30;59249;59.736;30.568;2022-09-16T01:53:06;13.43;91.05
71128;SHT30;59249;59.736;30.568;2022-09-16T01:55:42;13.38;90.98
71128;SHT30;59249;59.736;30.568;2022-09-16T01:58:23;13.33;91.06
71128;SHT30;59249;59.736;30.568;2022-09-16T02:01:01;13.33;91.01
71128;SHT30;59249;59.736;30.568;2022-09-16T02:03:38;13.28;91.30
71128;SHT30;59249;59.736;30.568;2022-09-16T02:06:13;13.25;91.37
71128;SHT30;59249;59.736;30.568;2022-09-16T02:08:50;13.28;91.27
71128;SHT30;59249;59.736;30.568;2022-09-16T02:11:21;13.17;91.17
71128;SHT30;59249;59.736;30.568;2022-09-16T02:13:57;13.18;91.02
71128;SHT30;59249;59.736;30.568;2022-09-16T02:16:34;13.17;91.03
71128;SHT30;59249;59.736;30.568;2022-09-16T02:19:11;13.22;90.99
71128;SHT30;59249;59.736;30.568;2022-09-16T02:21:41;13.23;91.04
71128;SHT30;59249;59.736;30.568;2022-09-16T02:24:17;13.26;90.99
71128;SHT30;59249;59.736;30.568;2022-09-16T02:26:53;13.23;90.82
71128;SHT30;59249;59.736;30.568;2022-09-16T02:29:27;13.23;91.04
71128;SHT30;59249;59.736;30.568;2022-09-16T02:32:02;13.21;90.98
71128;SHT30;59249;59.736;30.568;2022-09-16T02:34:42;13.27;91.08
71128;SHT30;59249;59.736;30.568;2022-09-16T02:37:17;13.27;90.91
71128;SHT30;59249;59.736;30.568;2022-09-16T02:39:51;13.24;90.85
71128;SHT30;59249;59.736;30.568;2022-09-16T02:42:23;13.18;90.98
71128;SHT30;59249;59.736;30.568;2022-09-16T02:44:52;13.11;90.99
71128;SHT30;59249;59.736;30.568;2022-09-16T02:47:29;13.11;90.95
71128;SHT30;59249;59.736;30.568;2022-09-16T02:50:09;13.02;90.90
71128;SHT30;59249;59.736;30.568;2022-09-16T02:52:50;13.05;90.70
71128;SHT30;59249;59.736;30.568;2022-09-16T02:55:33;13.08;90.59
71128;SHT30;59249;59.736;30.568;2022-09-16T02:58:06;13.08;90.38
71128;SHT30;59249;59.736;30.568;2022-09-16T03:00:45;13.06;90.29
71128;SHT30;59249;59.736;30.568;2022-09-16T03:03:20;13.08;90.01
71128;SHT30;59249;59.736;30.568;2022-09-16T03:06:13;13.05;89.87
71128;SHT30;59249;59.736;30.568;2022-09-16T03:08:45;13.02;90.08
71128;SHT30;59249;59.736;30.568;2022-09-16T03:11:32;12.99;90.02
71128;SHT30;59249;59.736;30.568;2022-09-16T03:14:53;13.06;90.04
71128;SHT30;59249;59.736;30.568;2022-09-16T03:18:11;12.97;90.19
71128;SHT30;59249;59.736;30.568;2022-09-16T03:20:53;12.99;90.18
71128;SHT30;59249;59.736;30.568;2022-09-16T03:23:40;12.98;90.11
71128;SHT30;59249;59.736;30.568;2022-09-16T03:26:27;13.02;90.06
71128;SHT30;59249;59.736;30.568;2022-09-16T03:29:08;13.04;89.95
71128;SHT30;59249;59.736;30.568;2022-09-16T03:31:46;12.99;90.25
71128;SHT30;59249;59.736;30.568;2022-09-16T03:34:25;12.99;90.00
71128;SHT30;59249;59.736;30.568;2022-09-16T03:37:01;12.99;89.97
71128;SHT30;59249;59.736;30.568;2022-09-16T03:39:33;13.02;90.19
71128;SHT30;59249;59.736;30.568;2022-09-16T03:42:05;12.95;90.27
71128;SHT30;59249;59.736;30.568;2022-09-16T03:44:39;12.95;90.35
71128;SHT30;59249;59.736;30.568;2022-09-16T03:47:10;12.95;90.19
71128;SHT30;59249;59.736;30.568;2022-09-16T03:49:41;12.96;90.01
71128;SHT30;59249;59.736;30.568;2022-09-16T03:52:10;12.96;90.10
71128;SHT30;59249;59.736;30.568;2022-09-16T03:54:42;12.93;89.96
71128;SHT30;59249;59.736;30.568;2022-09-16T03:57:11;12.86;90.08
71128;SHT30;59249;59.736;30.568;2022-09-16T03:59:58;12.87;90.11
71128;SHT30;59249;59.736;30.568;2022-09-16T04:02:38;12.88;89.92
71128;SHT30;59249;59.736;30.568;2022-09-16T04:05:08;12.90;90.01
71128;SHT30;59249;59.736;30.568;2022-09-16T04:07:37;12.89;89.84
71128;SHT30;59249;59.736;30.568;2022-09-16T04:10:08;12.89;90.00
71128;SHT30;59249;59.736;30.568;2022-09-16T04:12:39;12.95;89.62
71128;SHT30;59249;59.736;30.568;2022-09-16T04:15:08;12.95;89.87
71128;SHT30;59249;59.736;30.568;2022-09-16T04:17:38;12.88;89.88
71128;SHT30;59249;59.736;30.568;2022-09-16T04:20:08;12.83;89.70
71128;SHT30;59249;59.736;30.568;2022-09-16T04:22:37;12.89;89.69
71128;SHT30;59249;59.736;30.568;2022-09-16T04:25:09;12.87;89.81
71128;SHT30;59249;59.736;30.568;2022-09-16T04:27:43;12.86;89.57
71128;SHT30;59249;59.736;30.568;2022-09-16T04:30:23;12.83;89.38
71128;SHT30;59249;59.736;30.568;2022-09-16T04:32:55;12.89;89.32
71128;SHT30;59249;59.736;30.568;2022-09-16T04:35:31;12.89;89.30
71128;SHT30;59249;59.736;30.568;2022-09-16T04:38:01;12.91;89.17
71128;SHT30;59249;59.736;30.568;2022-09-16T04:40:33;12.93;89.00
71128;SHT30;59249;59.736;30.568;2022-09-16T04:43:02;12.97;89.17
71128;SHT30;59249;59.736;30.568;2022-09-16T04:45:32;12.99;88.81
71128;SHT30;59249;59.736;30.568;2022-09-16T04:48:01;12.99;88.67
71128;SHT30;59249;59.736;30.568;2022-09-16T04:50:30;13.03;88.63
71128;SHT30;59249;59.736;30.568;2022-09-16T04:53:00;12.97;88.82
71128;SHT30;59249;59.736;30.568;2022-09-16T04:55:29;13.02;88.69
71128;SHT30;59249;59.736;30.568;2022-09-16T04:58:00;13.11;88.41
71128;SHT30;59249;59.736;30.568;2022-09-16T05:00:31;13.12;88.34
71128;SHT30;59249;59.736;30.568;2022-09-16T05:03:00;13.15;88.02
71128;SHT30;59249;59.736;30.568;2022-09-16T05:05:29;13.15;88.25
71128;SHT30;59249;59.736;30.568;2022-09-16T05:07:59;13.20;87.70
71128;SHT30;59249;59.736;30.568;2022-09-16T05:10:30;13.13;87.75
71128;SHT30;59249;59.736;30.568;2022-09-16T05:13:01;13.25;87.74
71128;SHT30;59249;59.736;30.568;2022-09-16T05:15:29;13.21;87.66
71128;SHT30;59249;59.736;30.568;2022-09-16T05:17:58;13.26;87.84
71128;SHT30;59249;59.736;30.568;2022-09-16T05:20:27;13.25;87.70
71128;SHT30;59249;59.736;30.568;2022-09-16T05:22:56;13.29;87.10
71128;SHT30;59249;59.736;30.568;2022-09-16T05:25:25;13.30;86.92
71128;SHT30;59249;59.736;30.568;2022-09-16T05:27:53;13.23;87.06
71128;SHT30;59249;59.736;30.568;2022-09-16T05:30:23;13.21;87.25
71128;SHT30;59249;59.736;30.568;2022-09-16T05:32:52;13.30;87.23
71128;SHT30;59249;59.736;30.568;2022-09-16T05:35:21;13.28;86.67
71128;SHT30;59249;59.736;30.568;2022-09-16T05:37:50;13.29;86.74
71128;SHT30;59249;59.736;30.568;2022-09-16T05:40:18;13.27;86.97
71128;SHT30;59249;59.736;30.568;2022-09-16T05:42:48;13.32;86.64
71128;SHT30;59249;59.736;30.568;2022-09-16T05:45:17;13.33;86.79
71128;SHT30;59249;59.736;30.568;2022-09-16T05:47:53;13.43;86.31
71128;SHT30;59249;59.736;30.568;2022-09-16T05:50:24;13.49;85.90
71128;SHT30;59249;59.736;30.568;2022-09-16T05:52:53;13.59;86.07
71128;SHT30;59249;59.736;30.568;2022-09-16T05:55:22;13.70;85.09
71128;SHT30;59249;59.736;30.568;2022-09-16T05:57:53;13.63;84.89
71128;SHT30;59249;59.736;30.568;2022-09-16T06:00:21;13.73;85.48
71128;SHT30;59249;59.736;30.568;2022-09-16T06:02:52;13.65;84.81
71128;SHT30;59249;59.736;30.568;2022-09-16T06:05:23;13.67;84.64
71128;SHT30;59249;59.736;30.568;2022-09-16T06:07:55;13.64;85.26
71128;SHT30;59249;59.736;30.568;2022-09-16T06:10:24;13.69;84.53
71128;SHT30;59249;59.736;30.568;2022-09-16T06:12:53;13.80;84.26
71128;SHT30;59249;59.736;30.568;2022-09-16T06:15:23;13.89;84.31
71128;SHT30;59249;59.736;30.568;2022-09-16T06:17:53;13.95;83.69
71128;SHT30;59249;59.736;30.568;2022-09-16T06:20:22;13.81;83.21
71128;SHT30;59249;59.736;30.568;2022-09-16T06:22:56;13.90;83.68
71128;SHT30;59249;59.736;30.568;2022-09-16T06:25:25;13.95;83.26
71128;SHT30;59249;59.736;30.568;2022-09-16T06:27:54;13.93;83.64
71128;SHT30;59249;59.736;30.568;2022-09-16T06:30:23;13.80;83.54
71128;SHT30;59249;59.736;30.568;2022-09-16T06:32:58;13.82;83.25
71128;SHT30;59249;59.736;30.568;2022-09-16T06:35:27;13.62;82.95
71128;SHT30;59249;59.736;30.568;2022-09-16T06:37:56;13.70;83.16
71128;SHT30;59249;59.736;30.568;2022-09-16T06:40:25;13.78;83.58
71128;SHT30;59249;59.736;30.568;2022-09-16T06:42:55;13.76;83.54
71128;SHT30;59249;59.736;30.568;2022-09-16T06:45:26;13.90;83.46
71128;SHT30;59249;59.736;30.568;2022-09-16T06:47:59;14.02;83.00
71128;SHT30;59249;59.736;30.568;2022-09-16T06:50:28;14.22;82.86
71128;SHT30;59249;59.736;30.568;2022-09-16T06:52:57;14.20;82.39
71128;SHT30;59249;59.736;30.568;2022-09-16T06:55:26;14.24;82.02
71128;SHT30;59249;59.736;30.568;2022-09-16T06:57:56;14.41;82.36
71128;SHT30;59249;59.736;30.568;2022-09-16T07:00:24;14.51;82.57
71128;SHT30;59249;59.736;30.568;2022-09-16T07:02:54;14.64;82.29
71128;SHT30;59249;59.736;30.568;2022-09-16T07:05:24;14.60;81.96
71128;SHT30;59249;59.736;30.568;2022-09-16T07:07:53;14.49;81.20
71128;SHT30;59249;59.736;30.568;2022-09-16T07:10:22;14.32;81.55
71128;SHT30;59249;59.736;30.568;2022-09-16T07:12:51;14.41;81.80
71128;SHT30;59249;59.736;30.568;2022-09-16T07:15:20;14.40;81.72
71128;SHT30;59249;59.736;30.568;2022-09-16T07:17:52;14.63;81.79
71128;SHT30;59249;59.736;30.568;2022-09-16T07:20:21;14.63;82.08
71128;SHT30;59249;59.736;30.568;2022-09-16T07:22:52;14.67;81.71
71128;SHT30;59249;59.736;30.568;2022-09-16T07:25:21;14.74;81.28
71128;SHT30;59249;59.736;30.568;2022-09-16T07:27:50;14.74;80.91
71128;SHT30;59249;59.736;30.568;2022-09-16T07:30:19;14.82;80.60
71128;SHT30;59249;59.736;30.568;2022-09-16T07:32:48;14.90;80.39
71128;SHT30;59249;59.736;30.568;2022-09-16T07:35:17;14.85;80.07
71128;SHT30;59249;59.736;30.568;2022-09-16T07:37:46;14.93;80.14
71128;SHT30;59249;59.736;30.568;2022-09-16T07:40:16;14.92;80.31
71128;SHT30;59249;59.736;30.568;2022-09-16T07:42:45;14.83;80.66
71128;SHT30;59249;59.736;30.568;2022-09-16T07:45:14;14.81;80.73
71128;SHT30;59249;59.736;30.568;2022-09-16T07:47:43;14.76;80.36
71128;SHT30;59249;59.736;30.568;2022-09-16T07:50:11;14.72;80.06
71128;SHT30;59249;59.736;30.568;2022-09-16T07:52:40;14.80;80.28
71128;SHT30;59249;59.736;30.568;2022-09-16T07:55:09;14.77;80.09
71128;SHT30;59249;59.736;30.568;2022-09-16T07:57:40;14.79;79.85
71128;SHT30;59249;59.736;30.568;2022-09-16T08:00:11;14.80;80.05
71128;SHT30;59249;59.736;30.568;2022-09-16T08:02:42;14.90;79.88
71128;SHT30;59249;59.736;30.568;2022-09-16T08:05:11;14.95;79.69
71128;SHT30;59249;59.736;30.568;2022-09-16T08:07:40;15.07;79.34
71128;SHT30;59249;59.736;30.568;2022-09-16T08:10:09;15.05;78.83
71128;SHT30;59249;59.736;30.568;2022-09-16T08:12:38;15.14;78.83
71128;SHT30;59249;59.736;30.568;2022-09-16T08:15:09;15.12;78.36
71128;SHT30;59249;59.736;30.568;2022-09-16T08:17:38;15.13;78.88
71128;SHT30;59249;59.736;30.568;2022-09-16T08:20:08;15.18;78.62
71128;SHT30;59249;59.736;30.568;2022-09-16T08:22:37;15.19;78.10
71128;SHT30;59249;59.736;30.568;2022-09-16T08:25:06;15.22;77.72
71128;SHT30;59249;59.736;30.568;2022-09-16T08:27:35;15.35;77.65
71128;SHT30;59249;59.736;30.568;2022-09-16T08:30:06;15.46;77.79
71128;SHT30;59249;59.736;30.568;2022-09-16T08:32:36;15.64;77.46
71128;SHT30;59249;59.736;30.568;2022-09-16T08:35:06;15.67;76.92
71128;SHT30;59249;59.736;30.568;2022-09-16T08:37:35;15.53;76.27
71128;SHT30;59249;59.736;30.568;2022-09-16T08:40:05;15.66;76.52
71128;SHT30;59249;59.736;30.568;2022-09-16T08:42:59;15.73;75.99
71128;SHT30;59249;59.736;30.568;2022-09-16T08:45:45;15.71;76.27
71128;SHT30;59249;59.736;30.568;2022-09-16T08:48:32;15.74;76.12
71128;SHT30;59249;59.736;30.568;2022-09-16T08:51:03;15.74;75.90
71128;SHT30;59249;59.736;30.568;2022-09-16T08:53:38;15.80;75.74
71128;SHT30;59249;59.736;30.568;2022-09-16T08:56:15;15.70;75.00
71128;SHT30;59249;59.736;30.568;2022-09-16T08:58:48;15.71;75.04
71128;SHT30;59249;59.736;30.568;2022-09-16T09:01:31;15.79;74.93
71128;SHT30;59249;59.736;30.568;2022-09-16T09:04:04;15.84;75.34
71128;SHT30;59249;59.736;30.568;2022-09-16T09:06:56;15.96;75.05
71128;SHT30;59249;59.736;30.568;2022-09-16T09:09:46;15.86;73.00
71128;SHT30;59249;59.736;30.568;2022-09-16T09:12:28;15.87;72.72
71128;SHT30;59249;59.736;30.568;2022-09-16T09:15:26;15.68;72.00
71128;SHT30;59249;59.736;30.568;2022-09-16T09:18:15;15.62;72.07
71128;SHT30;59249;59.736;30.568;2022-09-16T09:20:58;15.64;72.00
71128;SHT30;59249;59.736;30.568;2022-09-16T09:23:47;15.66;71.81
71128;SHT30;59249;59.736;30.568;2022-09-16T09:26:23;15.77;71.71
71128;SHT30;59249;59.736;30.568;2022-09-16T09:29:30;15.74;71.85
71128;SHT30;59249;59.736;30.568;2022-09-16T09:32:14;15.66;72.08
71128;SHT30;59249;59.736;30.568;2022-09-16T09:35:06;15.70;72.15
71128;SHT30;59249;59.736;30.568;2022-09-16T09:40:44;15.81;71.36
71128;SHT30;59249;59.736;30.568;2022-09-16T09:43:19;15.70;71.36
71128;SHT30;59249;59.736;30.568;2022-09-16T09:46:01;15.74;71.34
71128;SHT30;59249;59.736;30.568;2022-09-16T09:48:37;15.89;71.46
71128;SHT30;59249;59.736;30.568;2022-09-16T09:51:15;15.93;70.99
71128;SHT30;59249;59.736;30.568;2022-09-16T09:53:53;15.95;70.65
71128;SHT30;59249;59.736;30.568;2022-09-16T09:56:30;16.05;70.83
71128;SHT30;59249;59.736;30.568;2022-09-16T09:59:12;16.14;70.68
71128;SHT30;59249;59.736;30.568;2022-09-16T10:01:53;16.25;70.44
71128;SHT30;59249;59.736;30.568;2022-09-16T10:04:24;16.11;69.56
71128;SHT30;59249;59.736;30.568;2022-09-16T10:06:57;16.02;69.74
71128;SHT30;59249;59.736;30.568;2022-09-16T10:09:28;15.98;70.00
71128;SHT30;59249;59.736;30.568;2022-09-16T10:11:57;16.09;70.65
71128;SHT30;59249;59.736;30.568;2022-09-16T10:14:30;16.21;70.37
71128;SHT30;59249;59.736;30.568;2022-09-16T10:17:02;16.26;69.82
71128;SHT30;59249;59.736;30.568;2022-09-16T10:19:47;16.16;69.85
71128;SHT30;59249;59.736;30.568;2022-09-16T10:22:22;16.12;70.08
71128;SHT30;59249;59.736;30.568;2022-09-16T10:24:58;16.18;70.11
71128;SHT30;59249;59.736;30.568;2022-09-16T10:27:29;16.17;70.19
71128;SHT30;59249;59.736;30.568;2022-09-16T10:30:12;16.21;70.33
71128;SHT30;59249;59.736;30.568;2022-09-16T10:32:49;16.16;71.07
71128;SHT30;59249;59.736;30.568;2022-09-16T10:35:29;16.21;70.81
71128;SHT30;59249;59.736;30.568;2022-09-16T10:38:05;16.23;70.95
71128;SHT30;59249;59.736;30.568;2022-09-16T10:40:53;16.34;70.39
71128;SHT30;59249;59.736;30.568;2022-09-16T10:43:25;16.14;70.73
71128;SHT30;59249;59.736;30.568;2022-09-16T10:45:57;16.06;70.89
71128;SHT30;59249;59.736;30.568;2022-09-16T10:48:29;16.06;71.24
71128;SHT30;59249;59.736;30.568;2022-09-16T10:51:02;16.20;70.73
71128;SHT30;59249;59.736;30.568;2022-09-16T10:53:35;16.20;71.27
71128;SHT30;59249;59.736;30.568;2022-09-16T10:56:20;16.47;70.45
71128;SHT30;59249;59.736;30.568;2022-09-16T10:59:00;16.49;69.92
71128;SHT30;59249;59.736;30.568;2022-09-16T11:01:42;16.56;70.23
71128;SHT30;59249;59.736;30.568;2022-09-16T11:07:34;17.16;68.60
71128;SHT30;59249;59.736;30.568;2022-09-16T11:10:21;17.08;67.68
71128;SHT30;59249;59.736;30.568;2022-09-16T11:13:30;17.03;68.54
71128;SHT30;59249;59.736;30.568;2022-09-16T11:16:34;16.91;67.60
71128;SHT30;59249;59.736;30.568;2022-09-16T11:19:19;17.05;68.15
71128;SHT30;59249;59.736;30.568;2022-09-16T11:22:06;17.22;68.37
71128;SHT30;59249;59.736;30.568;2022-09-16T11:25:15;17.35;67.18
71128;SHT30;59249;59.736;30.568;2022-09-16T11:31:15;17.30;66.60
71128;SHT30;59249;59.736;30.568;2022-09-16T11:33:55;17.24;66.15
71128;SHT30;59249;59.736;30.568;2022-09-16T11:36:40;17.11;65.82
71128;SHT30;59249;59.736;30.568;2022-09-16T11:39:36;17.03;66.22
71128;SHT30;59249;59.736;30.568;2022-09-16T11:42:18;16.86;66.69
71128;SHT30;59249;59.736;30.568;2022-09-16T11:45:02;16.84;67.05
71128;SHT30;59249;59.736;30.568;2022-09-16T11:48:00;16.93;67.26
71128;SHT30;59249;59.736;30.568;2022-09-16T11:50:46;16.88;67.08
71128;SHT30;59249;59.736;30.568;2022-09-16T11:53:57;16.79;67.35
71128;SHT30;59249;59.736;30.568;2022-09-16T11:56:38;16.63;67.75
71128;SHT30;59249;59.736;30.568;2022-09-16T11:59:19;16.76;68.22
71128;SHT30;59249;59.736;30.568;2022-09-16T12:01:59;16.84;68.26
71128;SHT30;59249;59.736;30.568;2022-09-16T12:04:43;16.85;68.36
71128;SHT30;59249;59.736;30.568;2022-09-16T12:07:20;16.89;68.45
71128;SHT30;59249;59.736;30.568;2022-09-16T12:10:00;16.95;68.78
71128;SHT30;59249;59.736;30.568;2022-09-16T12:12:37;16.87;68.87
71128;SHT30;59249;59.736;30.568;2022-09-16T12:15:17;16.88;69.03
71128;SHT30;59249;59.736;30.568;2022-09-16T12:17:54;17.16;68.76
71128;SHT30;59249;59.736;30.568;2022-09-16T12:20:34;17.32;67.98
71128;SHT30;59249;59.736;30.568;2022-09-16T12:23:13;17.47;67.25
71128;SHT30;59249;59.736;30.568;2022-09-16T12:25:58;17.61;66.44
71128;SHT30;59249;59.736;30.568;2022-09-16T12:28:34;17.64;66.72
71128;SHT30;59249;59.736;30.568;2022-09-16T12:31:16;17.59;67.08
71128;SHT30;59249;59.736;30.568;2022-09-16T12:33:56;17.44;66.91
71128;SHT30;59249;59.736;30.568;2022-09-16T12:36:37;17.62;67.38
71128;SHT30;59249;59.736;30.568;2022-09-16T12:39:11;17.76;66.98
71128;SHT30;59249;59.736;30.568;2022-09-16T12:42:06;17.83;66.50
71128;SHT30;59249;59.736;30.568;2022-09-16T12:45:11;17.86;65.65
71128;SHT30;59249;59.736;30.568;2022-09-16T12:48:01;17.58;66.24
71128;SHT30;59249;59.736;30.568;2022-09-16T12:51:19;17.45;66.94
71128;SHT30;59249;59.736;30.568;2022-09-16T12:54:27;17.22;67.32
71128;SHT30;59249;59.736;30.568;2022-09-16T12:57:40;17.19;67.57
71128;SHT30;59249;59.736;30.568;2022-09-16T13:00:18;17.02;67.99
71128;SHT30;59249;59.736;30.568;2022-09-16T13:02:52;17.04;68.10
71128;SHT30;59249;59.736;30.568;2022-09-16T13:05:27;17.05;68.29
71128;SHT30;59249;59.736;30.568;2022-09-16T13:08:05;17.05;68.63
71128;SHT30;59249;59.736;30.568;2022-09-16T13:10:39;17.03;68.73
71128;SHT30;59249;59.736;30.568;2022-09-16T13:13:34;17.08;68.52
71128;SHT30;59249;59.736;30.568;2022-09-16T13:16:07;16.95;68.65
71128;SHT30;59249;59.736;30.568;2022-09-16T13:18:43;16.91;68.87
71128;SHT30;59249;59.736;30.568;2022-09-16T13:21:23;16.84;69.08
71128;SHT30;59249;59.736;30.568;2022-09-16T13:24:02;16.88;69.10
71128;SHT30;59249;59.736;30.568;2022-09-16T13:26:46;16.78;69.11
71128;SHT30;59249;59.736;30.568;2022-09-16T13:29:40;16.58;69.46
71128;SHT30;59249;59.736;30.568;2022-09-16T13:32:35;16.77;69.70
71128;SHT30;59249;59.736;30.568;2022-09-16T13:35:33;16.91;69.62
71128;SHT30;59249;59.736;30.568;2022-09-16T13:38:35;16.55;70.14
71128;SHT30;59249;59.736;30.568;2022-09-16T13:41:33;16.37;71.09
71128;SHT30;59249;59.736;30.568;2022-09-16T13:44:28;16.33;71.85
71128;SHT30;59249;59.736;30.568;2022-09-16T13:47:16;16.18;72.20
71128;SHT30;59249;59.736;30.568;2022-09-16T13:49:56;16.16;72.45
71128;SHT30;59249;59.736;30.568;2022-09-16T13:52:30;16.05;72.64
71128;SHT30;59249;59.736;30.568;2022-09-16T13:55:00;15.82;73.54
71128;SHT30;59249;59.736;30.568;2022-09-16T13:58:00;15.64;74.75
71128;SHT30;59249;59.736;30.568;2022-09-16T14:00:39;15.54;75.50
71128;SHT30;59249;59.736;30.568;2022-09-16T14:03:45;15.36;76.60
71128;SHT30;59249;59.736;30.568;2022-09-16T14:09:49;15.06;77.67
71128;SHT30;59249;59.736;30.568;2022-09-16T14:12:32;14.94;78.59
71128;SHT30;59249;59.736;30.568;2022-09-16T14:15:08;14.90;79.19
71128;SHT30;59249;59.736;30.568;2022-09-16T14:21:19;15.03;79.60
71128;SHT30;59249;59.736;30.568;2022-09-16T14:23:48;15.05;79.92
71128;SHT30;59249;59.736;30.568;2022-09-16T14:26:22;15.11;79.61
71128;SHT30;59249;59.736;30.568;2022-09-16T14:29:02;15.12;79.43
71128;SHT30;59249;59.736;30.568;2022-09-16T14:31:33;15.19;78.95
71128;SHT30;59249;59.736;30.568;2022-09-16T14:34:05;15.23;79.17
71128;SHT30;59249;59.736;30.568;2022-09-16T14:36:39;15.20;79.05
71128;SHT30;59249;59.736;30.568;2022-09-16T14:39:14;15.25;78.65
71128;SHT30;59249;59.736;30.568;2022-09-16T14:41:50;15.23;79.08
71128;SHT30;59249;59.736;30.568;2022-09-16T14:44:31;15.23;78.76
71128;SHT30;59249;59.736;30.568;2022-09-16T14:47:17;14.89;79.30
71128;SHT30;59249;59.736;30.568;2022-09-16T14:50:15;14.28;77.27
71128;SHT30;59249;59.736;30.568;2022-09-16T14:52:57;13.97;77.34
71128;SHT30;59249;59.736;30.568;2022-09-16T14:55:29;13.70;77.86
71128;SHT30;59249;59.736;30.568;2022-09-16T14:58:11;13.29;79.38
71128;SHT30;59249;59.736;30.568;2022-09-16T15:00:51;13.11;79.91
71128;SHT30;59249;59.736;30.568;2022-09-16T15:03:27;12.96;80.64
71128;SHT30;59249;59.736;30.568;2022-09-16T15:06:03;12.74;81.34
71128;SHT30;59249;59.736;30.568;2022-09-16T15:08:43;12.69;81.81
71128;SHT30;59249;59.736;30.568;2022-09-16T15:11:25;12.51;82.22
71128;SHT30;59249;59.736;30.568;2022-09-16T15:14:14;12.47;82.67
71128;SHT30;59249;59.736;30.568;2022-09-16T15:16:48;12.44;82.84
71128;SHT30;59249;59.736;30.568;2022-09-16T15:19:27;12.45;82.79
71128;SHT30;59249;59.736;30.568;2022-09-16T15:21:57;12.33;82.76
71128;SHT30;59249;59.736;30.568;2022-09-16T15:24:32;12.29;83.05
71128;SHT30;59249;59.736;30.568;2022-09-16T15:27:05;12.25;83.31
71128;SHT30;59249;59.736;30.568;2022-09-16T15:29:47;12.20;83.43
71128;SHT30;59249;59.736;30.568;2022-09-16T15:32:20;12.17;83.30
71128;SHT30;59249;59.736;30.568;2022-09-16T15:35:11;12.08;83.69
71128;SHT30;59249;59.736;30.568;2022-09-16T15:37:48;12.08;83.78
71128;SHT30;59249;59.736;30.568;2022-09-16T15:40:38;12.08;83.86
71128;SHT30;59249;59.736;30.568;2022-09-16T15:43:26;12.03;84.04
71128;SHT30;59249;59.736;30.568;2022-09-16T15:45:59;12.01;84.29
71128;SHT30;59249;59.736;30.568;2022-09-16T15:48:33;12.01;84.71
71128;SHT30;59249;59.736;30.568;2022-09-16T15:51:08;11.97;85.42
71128;SHT30;59249;59.736;30.568;2022-09-16T15:53:42;12.02;85.18
71128;SHT30;59249;59.736;30.568;2022-09-16T15:56:25;12.01;85.40
71128;SHT30;59249;59.736;30.568;2022-09-16T15:58:59;12.01;85.63
71128;SHT30;59249;59.736;30.568;2022-09-16T16:01:51;11.99;85.71
71128;SHT30;59249;59.736;30.568;2022-09-16T16:04:25;12.05;85.68
71128;SHT30;59249;59.736;30.568;2022-09-16T16:06:56;12.01;85.51
71128;SHT30;59249;59.736;30.568;2022-09-16T16:09:36;11.99;85.79
71128;SHT30;59249;59.736;30.568;2022-09-16T16:12:11;12.02;85.15
71128;SHT30;59249;59.736;30.568;2022-09-16T16:14:40;12.04;85.14
71128;SHT30;59249;59.736;30.568;2022-09-16T16:17:13;12.01;84.93
71128;SHT30;59249;59.736;30.568;2022-09-16T16:19:47;12.00;85.44
71128;SHT30;59249;59.736;30.568;2022-09-16T16:22:20;11.97;85.88
71128;SHT30;59249;59.736;30.568;2022-09-16T16:24:50;11.95;85.86
71128;SHT30;59249;59.736;30.568;2022-09-16T16:27:21;11.85;86.23
71128;SHT30;59249;59.736;30.568;2022-09-16T16:29:53;11.97;85.73
71128;SHT30;59249;59.736;30.568;2022-09-16T16:32:23;11.93;85.81
71128;SHT30;59249;59.736;30.568;2022-09-16T16:34:52;11.85;85.96
71128;SHT30;59249;59.736;30.568;2022-09-16T16:37:25;11.84;86.30